Time;durP1;ratioP1;P1;durP2;ratioP2;P2;SDS_P1;SDS_P2;PMS_P1;PMS_P2;Temp;Humidity;BMP_temperature;BMP_pressure;BME280_temperature;BME280_humidity;BME280_pressure;Samples;Min_cycle;Max_cycle;Signal;HPM_P1;HPM_P2
2022/08/04 00:42:21;;;;;;;6.53;2.13;;;;;;;;;;4807505;29;20431;-50
2022/08/04 00:45:09;;;;;;;4.35;1.63;;;;;;;;;;4807373;29;20047;-49
2022/08/04 00:47:46;;;;;;;3.40;1.73;;;;;;;;;;4807238;29;20130;-49
2022/08/04 00:50:41;;;;;;;3.33;1.90;;;;;;;;;;4807184;29;20057;-52
2022/08/04 00:53:26;;;;;;;3.42;1.55;;;;;;;;;;4807198;29;20651;-49
2022/08/04 00:56:07;;;;;;;5.03;2.15;;;;;;;;;;4807121;29;20431;-51
2022/08/04 00:58:44;;;;;;;2.88;1.67;;;;;;;;;;4807158;29;20054;-50
2022/08/04 01:01:39;;;;;;;3.05;1.77;;;;;;;;;;4806782;29;20049;-47
2022/08/04 01:04:16;;;;;;;3.72;2.15;;;;;;;;;;4807029;29;20472;-53
2022/08/04 01:07:09;;;;;;;3.55;1.90;;;;;;;;;;4807041;29;20057;-52
2022/08/04 01:09:48;;;;;;;2.92;1.70;;;;;;;;;;4806969;29;20097;-51
2022/08/04 01:12:35;;;;;;;5.15;1.90;;;;;;;;;;4807062;29;20058;-51
2022/08/04 01:15:18;;;;;;;4.10;2.00;;;;;;;;;;4806709;29;20047;-47
2022/08/04 01:18:04;;;;;;;5.93;1.95;;;;;;;;;;4808522;29;20499;-53
2022/08/04 01:21:18;;;;;;;4.47;1.75;;;;;;;;;;4824911;29;20073;-51
2022/08/04 01:24:13;;;;;;;4.47;2.03;;;;;;;;;;4838373;29;20070;-51
2022/08/04 01:26:54;;;;;;;3.55;2.00;;;;;;;;;;4842039;29;20479;-48
2022/08/04 01:29:33;;;;;;;3.58;1.80;;;;;;;;;;4842814;29;20053;-48
2022/08/04 01:32:19;;;;;;;5.68;2.17;;;;;;;;;;4842869;29;20474;-52
2022/08/04 01:35:16;;;;;;;3.65;1.80;;;;;;;;;;4842689;29;20555;-49
2022/08/04 01:38:29;;;;;;;4.13;1.95;;;;;;;;;;4842699;29;20140;-50
2022/08/04 01:41:02;;;;;;;2.60;1.73;;;;;;;;;;4842688;29;20053;-52
2022/08/04 01:43:32;;;;;;;4.50;2.13;;;;;;;;;;4842762;29;20054;-52
2022/08/04 01:46:02;;;;;;;3.08;2.15;;;;;;;;;;4842641;29;20376;-51
2022/08/04 01:48:30;;;;;;;3.42;1.80;;;;;;;;;;4842480;29;20046;-51
2022/08/04 01:51:05;;;;;;;3.40;1.98;;;;;;;;;;4842484;29;20054;-50
2022/08/04 01:53:38;;;;;;;5.78;2.45;;;;;;;;;;4842413;29;20236;-51
2022/08/04 01:56:10;;;;;;;3.63;2.15;;;;;;;;;;4842466;29;20053;-49
2022/08/04 01:58:38;;;;;;;4.57;1.90;;;;;;;;;;4842431;29;20042;-52
2022/08/04 02:01:10;;;;;;;4.53;1.85;;;;;;;;;;4840236;29;20106;-51
2022/08/04 02:03:40;;;;;;;2.87;2.10;;;;;;;;;;4806065;29;20523;-49
2022/08/04 02:06:37;;;;;;;3.80;2.60;;;;;;;;;;4805039;29;20388;-52
2022/08/04 02:09:33;;;;;;;4.18;2.17;;;;;;;;;;4805751;29;20058;-50
2022/08/04 02:12:26;;;;;;;5.30;3.10;;;;;;;;;;4805408;29;20055;-47
2022/08/04 02:15:06;;;;;;;6.38;1.90;;;;;;;;;;4805758;29;20055;-47
2022/08/04 02:17:51;;;;;;;3.60;2.40;;;;;;;;;;4806194;29;20053;-49
2022/08/04 02:20:23;;;;;;;4.28;2.42;;;;;;;;;;4842263;29;20076;-52
2022/08/04 02:22:58;;;;;;;4.47;2.53;;;;;;;;;;4841447;29;20052;-49
2022/08/04 02:25:28;;;;;;;3.28;2.05;;;;;;;;;;4841956;29;20102;-50
2022/08/04 02:28:10;;;;;;;4.25;2.55;;;;;;;;;;4841819;29;20042;-49
2022/08/04 02:31:14;;;;;;;3.65;2.15;;;;;;;;;;4841874;29;20058;-50
2022/08/04 02:33:43;;;;;;;;;;;;;;;;;;4842327;29;20103;-46
2022/08/04 02:36:20;;;;;;;6.00;2.42;;;;;;;;;;4841862;29;19929;-52
2022/08/04 02:38:58;;;;;;;5.93;2.47;;;;;;;;;;4841849;29;20124;-48
2022/08/04 02:41:27;;;;;;;4.93;2.78;;;;;;;;;;4841769;29;20121;-51
2022/08/04 02:43:57;;;;;;;3.75;2.25;;;;;;;;;;4841656;29;20046;-48
2022/08/04 02:46:26;;;;;;;21.00;11.73;;;;;;;;;;4841710;29;20048;-49
2022/08/04 02:48:54;;;;;;;11.93;6.10;;;;;;;;;;4841396;29;20056;-51
2022/08/04 02:51:36;;;;;;;7.22;3.25;;;;;;;;;;4841845;29;20455;-49
2022/08/04 02:54:06;;;;;;;4.90;2.58;;;;;;;;;;4841477;29;20038;-49
2022/08/04 02:56:36;;;;;;;5.00;2.65;;;;;;;;;;4841558;29;20144;-47
2022/08/04 02:59:07;;;;;;;5.40;2.40;;;;;;;;;;4841477;29;20129;-52
2022/08/04 03:01:35;;;;;;;4.07;2.40;;;;;;;;;;4828225;29;20502;-50
2022/08/04 03:04:21;;;;;;;4.70;2.70;;;;;;;;;;4823308;29;20050;-48
2022/08/04 03:07:19;;;;;;;4.25;2.47;;;;;;;;;;4823154;29;20137;-46
2022/08/04 03:10:04;;;;;;;5.45;3.00;;;;;;;;;;4823385;29;20046;-53
2022/08/04 03:12:50;;;;;;;4.13;2.55;;;;;;;;;;4823384;29;20074;-52
2022/08/04 03:15:42;;;;;;;5.38;2.85;;;;;;;;;;4823289;29;20072;-52
2022/08/04 03:18:21;;;;;;;64.18;34.13;;;;;;;;;;4827747;29;20121;-46
2022/08/04 03:21:30;;;;;;;21.48;10.85;;;;;;;;;;4841620;29;20046;-48
2022/08/04 03:24:15;;;;;;;10.43;4.28;;;;;;;;;;4842267;29;20057;-52
2022/08/04 03:26:46;;;;;;;9.40;3.60;;;;;;;;;;4829535;29;20133;-47
2022/08/04 03:29:31;;;;;;;8.93;4.05;;;;;;;;;;4825893;29;20446;-47
2022/08/04 03:32:40;;;;;;;6.13;3.92;;;;;;;;;;4826346;29;20057;-46
2022/08/04 03:35:21;;;;;;;5.65;3.70;;;;;;;;;;4806329;29;20052;-45
2022/08/04 03:38:02;;;;;;;6.85;4.45;;;;;;;;;;4824874;29;20426;-45
2022/08/04 03:40:53;;;;;;;7.20;4.10;;;;;;;;;;4826517;29;20046;-48
2022/08/04 03:43:45;;;;;;;5.65;3.72;;;;;;;;;;4826588;29;20865;-44
2022/08/04 03:46:45;;;;;;;7.75;4.65;;;;;;;;;;4826511;29;20443;-46
2022/08/04 03:49:37;;;;;;;6.93;3.53;;;;;;;;;;4826112;29;20069;-50
2022/08/04 03:55:18;;;;;;;9.32;3.63;;;;;;;;;;4826087;29;20507;-45
2022/08/04 03:57:58;;;;;;;8.65;4.47;;;;;;;;;;4826177;29;20045;-47
2022/08/04 04:00:33;;;;;;;9.10;4.07;;;;;;;;;;4826070;29;20050;-47
2022/08/04 04:03:29;;;;;;;8.27;4.13;;;;;;;;;;4826004;29;20084;-48
2022/08/04 04:06:14;;;;;;;5.80;4.20;;;;;;;;;;4825926;29;20517;-49
2022/08/04 04:09:09;;;;;;;7.13;3.67;;;;;;;;;;4825746;29;20060;-48
2022/08/04 04:11:55;;;;;;;8.77;3.92;;;;;;;;;;4826185;29;20046;-46
2022/08/04 04:14:53;;;;;;;6.35;3.25;;;;;;;;;;4825732;29;20477;-47
2022/08/04 04:17:47;;;;;;;5.57;3.70;;;;;;;;;;4825846;29;20051;-47
2022/08/04 04:20:45;;;;;;;5.78;3.50;;;;;;;;;;4825827;29;20129;-49
2022/08/04 04:23:33;;;;;;;6.55;3.72;;;;;;;;;;4825496;29;20059;-47
2022/08/04 04:26:26;;;;;;;4.25;3.55;;;;;;;;;;4825727;29;20051;-45
2022/08/04 04:29:01;;;;;;;6.32;4.13;;;;;;;;;;4825293;29;20085;-47
2022/08/04 04:31:57;;;;;;;5.68;3.85;;;;;;;;;;4825679;29;20078;-47
2022/08/04 04:34:36;;;;;;;7.32;4.18;;;;;;;;;;4824898;29;20106;-49
2022/08/04 04:37:33;;;;;;;5.90;3.70;;;;;;;;;;4825382;29;20261;-49
2022/08/04 04:40:23;;;;;;;11.27;7.22;;;;;;;;;;4825522;29;20121;-45
2022/08/04 04:43:12;;;;;;;15.40;7.22;;;;;;;;;;4825459;29;20047;-45
2022/08/04 04:45:48;;;;;;;6.70;3.90;;;;;;;;;;4825327;29;20046;-49
2022/08/04 04:49:01;;;;;;;6.20;3.20;;;;;;;;;;4825312;29;20078;-45
2022/08/04 04:51:36;;;;;;;5.35;3.42;;;;;;;;;;4820411;29;20099;-47
2022/08/04 04:54:14;;;;;;;6.80;3.40;;;;;;;;;;4825238;29;20053;-45
2022/08/04 04:56:55;;;;;;;8.65;3.65;;;;;;;;;;4825282;29;20053;-47
2022/08/04 04:59:31;;;;;;;5.60;3.28;;;;;;;;;;4825251;29;20047;-47
2022/08/04 05:02:36;;;;;;;6.28;3.97;;;;;;;;;;4825208;29;20061;-47
2022/08/04 05:05:25;;;;;;;7.03;3.13;;;;;;;;;;4825017;29;20086;-47
2022/08/04 05:08:07;;;;;;;5.78;3.15;;;;;;;;;;4823863;29;20103;-49
2022/08/04 05:11:09;;;;;;;7.53;3.50;;;;;;;;;;4824965;29;20046;-45
2022/08/04 05:13:48;;;;;;;9.90;3.65;;;;;;;;;;4824995;29;20046;-50
2022/08/04 05:16:45;;;;;;;36.80;19.73;;;;;;;;;;4824901;29;20043;-45
2022/08/04 05:19:21;;;;;;;9.05;5.00;;;;;;;;;;4837413;29;20494;-49
2022/08/04 05:21:56;;;;;;;6.93;3.20;;;;;;;;;;4843270;29;20045;-46
2022/08/04 05:24:26;;;;;;;6.55;3.03;;;;;;;;;;4842939;29;20511;-45
2022/08/04 05:27:00;;;;;;;4.80;2.85;;;;;;;;;;4842860;29;20091;-50
2022/08/04 05:29:35;;;;;;;5.57;3.17;;;;;;;;;;4842828;29;20512;-48
2022/08/04 05:32:11;;;;;;;4.43;2.80;;;;;;;;;;4842842;29;20125;-47
2022/08/04 05:34:42;;;;;;;6.80;3.15;;;;;;;;;;4842887;29;20042;-50
2022/08/04 05:37:16;;;;;;;7.68;3.60;;;;;;;;;;4842684;29;20054;-48
2022/08/04 05:39:59;;;;;;;4.47;3.05;;;;;;;;;;4842635;29;20079;-45
2022/08/04 05:42:27;;;;;;;6.53;3.22;;;;;;;;;;4842943;29;20048;-50
2022/08/04 05:44:56;;;;;;;6.05;2.65;;;;;;;;;;4842636;29;20050;-47
2022/08/04 05:47:27;;;;;;;7.57;2.75;;;;;;;;;;4841566;29;20472;-51
2022/08/04 05:49:56;;;;;;;7.60;3.20;;;;;;;;;;4842608;29;20054;-51
2022/08/04 05:52:31;;;;;;;7.32;2.92;;;;;;;;;;4842337;29;20042;-50
2022/08/04 05:54:59;;;;;;;5.35;3.08;;;;;;;;;;4842454;29;20042;-50
2022/08/04 05:57:28;;;;;;;5.95;3.10;;;;;;;;;;4842400;29;20145;-47
2022/08/04 05:59:59;;;;;;;5.18;3.00;;;;;;;;;;4842323;29;20053;-52
2022/08/04 06:02:28;;;;;;;5.70;2.80;;;;;;;;;;4842354;29;20576;-49
2022/08/04 06:04:56;;;;;;;6.22;2.83;;;;;;;;;;4842114;29;20042;-51
2022/08/04 06:07:25;;;;;;;6.78;3.20;;;;;;;;;;4842311;29;20091;-48
2022/08/04 06:09:53;;;;;;;6.40;2.63;;;;;;;;;;4842290;29;20477;-51
2022/08/04 06:12:25;;;;;;;16.90;10.00;;;;;;;;;;4842523;29;20060;-46
2022/08/04 06:14:55;;;;;;;5.88;3.20;;;;;;;;;;4842008;29;20512;-48
2022/08/04 06:17:31;;;;;;;4.13;2.40;;;;;;;;;;4842047;29;20529;-48
2022/08/04 06:20:20;;;;;;;4.20;2.40;;;;;;;;;;4824188;29;20049;-51
2022/08/04 06:22:54;;;;;;;6.90;2.58;;;;;;;;;;4824013;29;20298;-50
2022/08/04 06:25:25;;;;;;;6.82;3.10;;;;;;;;;;4824084;29;20499;-47
2022/08/04 06:27:54;;;;;;;6.13;2.55;;;;;;;;;;4823505;29;20055;-46
2022/08/04 06:30:25;;;;;;;4.05;2.10;;;;;;;;;;4824086;29;20046;-49
2022/08/04 06:32:55;;;;;;;10.13;3.00;;;;;;;;;;4823758;29;20050;-50
2022/08/04 06:35:31;;;;;;;5.45;2.55;;;;;;;;;;4823835;29;20051;-52
2022/08/04 06:38:00;;;;;;;3.83;2.10;;;;;;;;;;4823794;29;20050;-50
2022/08/04 06:40:28;;;;;;;5.35;2.25;;;;;;;;;;4823470;29;20053;-52
2022/08/04 06:43:06;;;;;;;5.47;2.72;;;;;;;;;;4823729;29;20392;-49
2022/08/04 06:45:35;;;;;;;4.25;2.20;;;;;;;;;;4823641;29;20049;-47
2022/08/04 06:48:05;;;;;;;5.18;2.60;;;;;;;;;;4823446;29;20051;-49
2022/08/04 06:50:34;;;;;;;32.05;13.70;;;;;;;;;;4823305;29;20050;-47
2022/08/04 06:53:23;;;;;;;7.38;4.13;;;;;;;;;;4823658;29;20050;-48
2022/08/04 06:55:51;;;;;;;5.32;2.20;;;;;;;;;;4823865;29;20047;-51
2022/08/04 06:58:21;;;;;;;8.05;2.47;;;;;;;;;;4823267;29;20049;-50
2022/08/04 07:00:49;;;;;;;3.75;2.00;;;;;;;;;;4823708;29;20090;-51
2022/08/04 07:03:18;;;;;;;6.13;2.35;;;;;;;;;;4823339;29;20050;-45
2022/08/04 07:05:47;;;;;;;8.38;2.05;;;;;;;;;;4823403;29;20038;-48
2022/08/04 07:08:14;;;;;;;5.80;2.35;;;;;;;;;;4823377;29;20082;-46
2022/08/04 07:10:47;;;;;;;13.07;2.42;;;;;;;;;;4822126;29;20457;-47
2022/08/04 07:13:15;;;;;;;5.63;2.50;;;;;;;;;;4823218;29;20060;-52
2022/08/04 07:15:44;;;;;;;3.92;2.20;;;;;;;;;;4823097;29;20057;-50
2022/08/04 07:18:11;;;;;;;6.80;2.45;;;;;;;;;;4828104;29;20042;-51
2022/08/04 07:20:41;;;;;;;4.75;2.70;;;;;;;;;;4841457;29;20407;-50
2022/08/04 07:23:10;;;;;;;4.95;2.42;;;;;;;;;;4841109;29;20458;-48
2022/08/04 07:25:38;;;;;;;6.43;2.83;;;;;;;;;;4841324;29;20085;-48
2022/08/04 07:28:28;;;;;;;6.40;2.30;;;;;;;;;;4841292;29;20049;-48
2022/08/04 07:30:57;;;;;;;8.85;2.45;;;;;;;;;;4841356;29;20502;-51
2022/08/04 07:33:24;;;;;;;8.75;2.17;;;;;;;;;;4841217;29;20038;-51
2022/08/04 07:35:55;;;;;;;4.82;1.90;;;;;;;;;;4841377;29;20049;-50
2022/08/04 07:38:39;;;;;;;5.57;2.38;;;;;;;;;;4841077;29;20128;-49
2022/08/04 07:41:21;;;;;;;6.50;2.40;;;;;;;;;;4841148;29;20078;-52
2022/08/04 07:44:05;;;;;;;11.02;5.78;;;;;;;;;;4841188;29;20049;-52
2022/08/04 07:46:33;;;;;;;7.93;2.25;;;;;;;;;;4841101;29;20042;-53
2022/08/04 07:49:00;;;;;;;5.93;2.47;;;;;;;;;;4840832;29;20509;-50
2022/08/04 07:51:29;;;;;;;3.47;1.48;;;;;;;;;;4840995;29;20050;-51
2022/08/04 07:53:57;;;;;;;5.20;1.80;;;;;;;;;;4841098;29;20394;-52
2022/08/04 07:56:27;;;;;;;3.72;1.70;;;;;;;;;;4841145;29;20079;-51
2022/08/04 07:58:55;;;;;;;3.70;1.70;;;;;;;;;;4840743;29;20455;-49
2022/08/04 08:01:23;;;;;;;3.88;1.75;;;;;;;;;;4841122;29;20067;-51
2022/08/04 08:03:54;;;;;;;5.55;2.00;;;;;;;;;;4832067;29;20058;-48
2022/08/04 08:06:23;;;;;;;9.07;1.92;;;;;;;;;;4823053;29;20062;-50
2022/08/04 08:09:07;;;;;;;8.57;1.80;;;;;;;;;;4822599;29;20109;-50
2022/08/04 08:11:41;;;;;;;4.90;1.85;;;;;;;;;;4825900;29;20046;-52
2022/08/04 08:14:29;;;;;;;7.25;1.90;;;;;;;;;;4826003;29;20053;-50
2022/08/04 08:17:01;;;;;;;5.03;2.20;;;;;;;;;;4825689;29;20039;-51
2022/08/04 08:19:33;;;;;;;7.28;1.77;;;;;;;;;;4825813;29;20388;-49
2022/08/04 08:22:01;;;;;;;3.70;1.60;;;;;;;;;;4825948;29;20085;-51
2022/08/04 08:24:35;;;;;;;3.20;1.45;;;;;;;;;;4825540;29;20137;-51
2022/08/04 08:27:05;;;;;;;14.20;6.15;;;;;;;;;;4825458;29;20471;-49
2022/08/04 08:29:34;;;;;;;6.45;3.63;;;;;;;;;;4825666;29;20051;-48
2022/08/04 08:32:03;;;;;;;4.25;1.90;;;;;;;;;;4825565;29;20046;-50
2022/08/04 08:34:36;;;;;;;7.60;1.83;;;;;;;;;;4825512;29;20046;-48
2022/08/04 08:37:22;;;;;;;4.70;2.00;;;;;;;;;;4825230;29;20047;-51
2022/08/04 08:40:06;;;;;;;5.40;1.75;;;;;;;;;;4809771;29;20502;-53
2022/08/04 08:42:59;;;;;;;7.97;2.20;;;;;;;;;;4825458;29;20121;-49
2022/08/04 08:45:58;;;;;;;4.82;1.38;;;;;;;;;;4825366;29;20042;-52
2022/08/04 08:48:28;;;;;;;6.75;1.83;;;;;;;;;;4825452;29;20444;-51
2022/08/04 08:51:32;;;;;;;5.47;1.70;;;;;;;;;;4825273;29;20098;-49
2022/08/04 08:54:30;;;;;;;5.57;1.60;;;;;;;;;;4825241;29;20058;-50
2022/08/04 08:57:11;;;;;;;3.42;1.38;;;;;;;;;;4804334;29;20104;-51
2022/08/04 08:59:56;;;;;;;4.00;1.42;;;;;;;;;;4825186;29;20551;-50
2022/08/04 09:02:48;;;;;;;6.28;1.63;;;;;;;;;;4825197;29;20050;-50
2022/08/04 09:05:53;;;;;;;8.10;3.60;;;;;;;;;;4807018;29;20516;-47
2022/08/04 09:08:44;;;;;;;40.78;25.98;;;;;;;;;;4806934;29;20046;-46
2022/08/04 09:11:15;;;;;;;4.85;2.33;;;;;;;;;;4806702;29;20059;-50
2022/08/04 09:13:48;;;;;;;6.78;2.08;;;;;;;;;;4807003;29;20078;-51
2022/08/04 09:16:37;;;;;;;8.07;2.20;;;;;;;;;;4806738;29;20407;-51
2022/08/04 09:19:20;;;;;;;4.95;1.67;;;;;;;;;;4829935;29;20050;-51
2022/08/04 09:22:40;;;;;;;7.00;2.00;;;;;;;;;;4842715;29;20089;-49
2022/08/04 09:25:12;;;;;;;9.05;1.60;;;;;;;;;;4804404;29;20051;-52
2022/08/04 09:27:49;;;;;;;4.97;1.65;;;;;;;;;;4836949;29;20111;-51
2022/08/04 09:30:19;;;;;;;6.00;1.80;;;;;;;;;;4842972;29;20057;-49
2022/08/04 09:33:09;;;;;;;4.00;1.73;;;;;;;;;;4842846;29;20073;-52
2022/08/04 09:35:45;;;;;;;4.53;1.65;;;;;;;;;;4842835;29;20046;-51
2022/08/04 09:38:26;;;;;;;6.40;2.00;;;;;;;;;;4842868;29;20115;-51
2022/08/04 09:41:19;;;;;;;5.90;2.40;;;;;;;;;;4842628;29;20057;-54
2022/08/04 09:44:37;;;;;;;9.20;2.25;;;;;;;;;;4842749;29;20133;-51
2022/08/04 09:47:52;;;;;;;4.03;1.58;;;;;;;;;;4843033;29;20421;-51
2022/08/04 09:50:44;;;;;;;6.15;1.73;;;;;;;;;;4841966;29;20049;-53
2022/08/04 09:53:49;;;;;;;3.60;1.40;;;;;;;;;;4825054;29;20121;-49
2022/08/04 09:56:33;;;;;;;3.92;1.70;;;;;;;;;;4824205;29;20062;-53
2022/08/04 09:59:05;;;;;;;4.45;1.73;;;;;;;;;;4824174;29;20106;-53
2022/08/04 10:01:35;;;;;;;4.40;1.83;;;;;;;;;;4824085;29;20050;-49
2022/08/04 10:04:08;;;;;;;5.25;1.65;;;;;;;;;;4824205;29;20039;-51
2022/08/04 10:07:05;;;;;;;3.53;1.52;;;;;;;;;;4823901;29;20503;-53
2022/08/04 10:10:11;;;;;;;4.55;1.67;;;;;;;;;;4804524;29;20069;-52
2022/08/04 10:12:51;;;;;;;5.32;2.90;;;;;;;;;;4785542;30;20047;-50
2022/08/04 10:15:26;;;;;;;7.03;2.28;;;;;;;;;;4785613;30;20492;-51
2022/08/04 10:18:09;;;;;;;6.07;2.15;;;;;;;;;;4809988;29;20042;-52
2022/08/04 10:20:58;;;;;;;7.25;1.80;;;;;;;;;;4823767;29;20410;-53
2022/08/04 10:23:53;;;;;;;6.43;2.15;;;;;;;;;;4823654;29;20050;-49
2022/08/04 10:26:50;;;;;;;6.78;1.88;;;;;;;;;;4823975;29;20050;-47
2022/08/04 10:29:51;;;;;;;5.90;1.55;;;;;;;;;;4823872;29;20053;-50
2022/08/04 10:32:30;;;;;;;6.53;1.80;;;;;;;;;;4822151;29;20077;-51
2022/08/04 10:35:14;;;;;;;3.75;1.40;;;;;;;;;;4823542;29;20046;-51
2022/08/04 10:37:46;;;;;;;5.65;1.50;;;;;;;;;;4823658;29;20050;-49
2022/08/04 10:40:46;;;;;;;6.75;2.17;;;;;;;;;;4823563;29;20072;-53
2022/08/04 10:43:14;;;;;;;6.63;1.50;;;;;;;;;;4823509;29;20507;-54
2022/08/04 10:45:55;;;;;;;6.25;1.75;;;;;;;;;;4823585;29;20057;-50
2022/08/04 10:48:34;;;;;;;5.95;2.08;;;;;;;;;;4822661;29;20052;-52
2022/08/04 10:51:10;;;;;;;3.60;1.27;;;;;;;;;;4823244;29;20055;-51
2022/08/04 10:53:38;;;;;;;7.65;1.63;;;;;;;;;;4823382;29;20074;-49
2022/08/04 10:56:36;;;;;;;4.13;1.58;;;;;;;;;;4823556;29;20454;-50
2022/08/04 10:59:10;;;;;;;5.13;1.83;;;;;;;;;;4820415;29;20058;-51
2022/08/04 11:01:41;;;;;;;5.28;1.88;;;;;;;;;;4822889;29;20478;-51
2022/08/04 11:04:58;;;;;;;8.45;1.95;;;;;;;;;;4823245;29;20138;-50
2022/08/04 11:07:30;;;;;;;4.97;1.60;;;;;;;;;;4823715;29;20411;-48
2022/08/04 11:09:58;;;;;;;4.40;1.25;;;;;;;;;;4823174;29;20054;-50
2022/08/04 11:12:26;;;;;;;4.47;1.90;;;;;;;;;;4823549;29;20047;-49
2022/08/04 11:15:00;;;;;;;4.72;1.50;;;;;;;;;;4823251;29;20050;-52
2022/08/04 11:17:35;;;;;;;3.67;1.63;;;;;;;;;;4823062;29;20039;-49
2022/08/04 11:20:18;;;;;;;6.00;1.40;;;;;;;;;;4823162;29;20042;-50
2022/08/04 11:23:16;;;;;;;4.88;1.77;;;;;;;;;;4822870;29;20060;-51
2022/08/04 11:26:02;;;;;;;5.75;1.63;;;;;;;;;;4822669;29;20499;-50
2022/08/04 11:28:51;;;;;;;5.95;1.85;;;;;;;;;;4822918;29;20050;-48
2022/08/04 11:31:32;;;;;;;3.67;1.70;;;;;;;;;;4823054;29;20055;-49
2022/08/04 11:34:22;;;;;;;3.38;1.77;;;;;;;;;;4822880;29;20107;-53
2022/08/04 11:36:52;;;;;;;2.78;1.40;;;;;;;;;;4823151;29;20054;-52
2022/08/04 11:39:27;;;;;;;8.27;1.85;;;;;;;;;;4822892;29;20050;-52
2022/08/04 11:42:21;;;;;;;7.93;1.70;;;;;;;;;;4823099;29;20391;-52
2022/08/04 11:44:54;;;;;;;6.03;1.58;;;;;;;;;;4825609;29;20612;-46
2022/08/04 11:47:32;;;;;;;4.15;1.50;;;;;;;;;;4826445;29;20126;-49
2022/08/04 11:50:11;;;;;;;3.95;1.40;;;;;;;;;;4826203;29;20050;-50
2022/08/04 11:52:42;;;;;;;5.65;1.30;;;;;;;;;;4826076;29;20061;-47
2022/08/04 11:55:12;;;;;;;4.47;1.80;;;;;;;;;;4826105;29;20134;-47
2022/08/04 11:57:40;;;;;;;5.30;1.38;;;;;;;;;;4826218;29;20057;-46
2022/08/04 12:00:13;;;;;;;7.47;1.77;;;;;;;;;;4826071;29;20071;-46
2022/08/04 12:02:59;;;;;;;4.82;1.42;;;;;;;;;;4826022;29;20054;-49
2022/08/04 12:05:31;;;;;;;4.22;1.45;;;;;;;;;;4826932;29;20084;-48
2022/08/04 12:08:15;;;;;;;3.50;1.40;;;;;;;;;;4825929;29;20068;-48
2022/08/04 12:11:19;;;;;;;4.43;1.50;;;;;;;;;;4825837;29;20613;-49
2022/08/04 12:14:11;;;;;;;44.45;24.55;;;;;;;;;;4825659;29;20054;-48
2022/08/04 12:16:47;;;;;;;5.65;1.55;;;;;;;;;;4825907;29;20449;-48
2022/08/04 12:19:25;;;;;;;3.15;1.40;;;;;;;;;;4838534;29;20110;-50
2022/08/04 12:22:26;;;;;;;4.90;1.30;;;;;;;;;;4840733;29;20514;-50
2022/08/04 12:25:13;;;;;;;4.22;1.75;;;;;;;;;;4825837;29;20418;-49
2022/08/04 12:27:56;;;;;;;;;;;;;;;;;;4826188;29;20038;-47
2022/08/04 12:30:23;;;;;;;;;;;;;;;;;;4825854;29;19932;-48
2022/08/04 12:33:26;;;;;;;5.43;1.65;;;;;;;;;;4826525;29;19928;-48
2022/08/04 12:36:28;;;;;;;3.83;1.00;;;;;;;;;;4825457;29;20064;-49
2022/08/04 12:39:03;;;;;;;3.08;1.40;;;;;;;;;;4824816;29;20105;-49
2022/08/04 12:41:38;;;;;;;5.35;1.45;;;;;;;;;;4825599;29;20050;-50
2022/08/04 12:44:10;;;;;;;3.78;1.30;;;;;;;;;;4825332;29;20057;-50
2022/08/04 12:46:58;;;;;;;4.30;1.30;;;;;;;;;;4825317;29;20053;-48
2022/08/04 12:49:47;;;;;;;3.08;1.00;;;;;;;;;;4825038;29;20555;-45
2022/08/04 12:52:47;;;;;;;5.35;1.30;;;;;;;;;;4825557;29;20042;-47
2022/08/04 12:55:34;;;;;;;2.42;1.05;;;;;;;;;;4824835;29;20042;-47
2022/08/04 12:58:10;;;;;;;26.98;14.73;;;;;;;;;;4823989;29;20527;-47
2022/08/04 13:00:38;;;;;;;6.57;2.33;;;;;;;;;;4825258;29;20392;-47
2022/08/04 13:03:14;;;;;;;5.30;1.20;;;;;;;;;;4824892;29;20111;-47
2022/08/04 13:05:43;;;;;;;3.67;1.27;;;;;;;;;;4824890;29;20491;-50
2022/08/04 13:08:14;;;;;;;4.95;1.58;;;;;;;;;;4824902;29;20103;-46
2022/08/04 13:10:46;;;;;;;7.00;1.52;;;;;;;;;;4824912;29;20141;-47
2022/08/04 13:13:23;;;;;;;4.53;1.20;;;;;;;;;;4824841;29;20051;-48
2022/08/04 13:15:56;;;;;;;5.22;1.30;;;;;;;;;;4824808;29;20074;-44
2022/08/04 13:18:26;;;;;;;2.97;1.20;;;;;;;;;;4831197;29;20068;-47
2022/08/04 13:21:12;;;;;;;5.07;1.17;;;;;;;;;;4842961;29;20054;-45
2022/08/04 13:23:57;;;;;;;4.03;1.63;;;;;;;;;;4842823;29;20096;-52
2022/08/04 13:27:07;;;;;;;4.97;1.77;;;;;;;;;;4842828;29;20057;-47
2022/08/04 13:29:41;;;;;;;4.18;1.05;;;;;;;;;;4843198;29;20568;-47
2022/08/04 13:32:27;;;;;;;4.38;1.48;;;;;;;;;;4842907;29;20529;-51
2022/08/04 13:34:56;;;;;;;3.53;1.40;;;;;;;;;;4842575;29;20106;-52
2022/08/04 13:37:34;;;;;;;7.57;1.90;;;;;;;;;;4842752;29;20053;-52
2022/08/04 13:40:06;;;;;;;3.45;1.27;;;;;;;;;;4842915;29;20476;-48
2022/08/04 13:42:37;;;;;;;4.63;1.70;;;;;;;;;;4842990;29;20052;-47
2022/08/04 13:45:06;;;;;;;2.50;1.38;;;;;;;;;;4842745;29;20046;-49
2022/08/04 13:47:36;;;;;;;4.47;1.70;;;;;;;;;;4842597;29;20400;-48
2022/08/04 13:50:26;;;;;;;5.43;1.85;;;;;;;;;;4842712;29;20046;-46
2022/08/04 13:52:59;;;;;;;4.28;1.50;;;;;;;;;;4842499;29;20069;-47
2022/08/04 13:55:32;;;;;;;7.45;2.55;;;;;;;;;;4842466;29;20069;-46
2022/08/04 13:58:22;;;;;;;33.63;16.15;;;;;;;;;;4842313;29;20521;-46
2022/08/04 14:00:58;;;;;;;4.95;2.28;;;;;;;;;;4842409;29;20049;-53
2022/08/04 14:03:38;;;;;;;4.05;1.48;;;;;;;;;;4842506;29;20053;-53
2022/08/04 14:06:24;;;;;;;4.85;1.73;;;;;;;;;;4841900;29;20061;-53
2022/08/04 14:09:00;;;;;;;3.42;1.85;;;;;;;;;;4841960;29;20046;-53
2022/08/04 14:11:33;;;;;;;3.47;1.60;;;;;;;;;;4842256;29;20050;-54
2022/08/04 14:14:24;;;;;;;;;;;;;;;;;;4841293;29;20413;-51
2022/08/04 14:17:03;;;;;;;4.35;1.48;;;;;;;;;;4823666;29;19928;-54
2022/08/04 14:20:00;;;;;;;5.97;1.88;;;;;;;;;;4823805;29;20046;-50
2022/08/04 14:22:33;;;;;;;5.80;2.00;;;;;;;;;;4805368;29;20055;-51
2022/08/04 14:25:17;;;;;;;3.63;1.48;;;;;;;;;;4805399;29;20047;-54
2022/08/04 14:27:50;;;;;;;4.00;1.60;;;;;;;;;;4805547;29;20043;-53
2022/08/04 14:30:34;;;;;;;4.25;2.08;;;;;;;;;;4805477;29;20099;-49
2022/08/04 14:33:08;;;;;;;3.65;1.65;;;;;;;;;;4804142;29;20050;-51
2022/08/04 14:35:58;;;;;;;4.38;1.60;;;;;;;;;;4805562;29;20043;-52
2022/08/04 14:38:51;;;;;;;4.28;1.48;;;;;;;;;;4805319;29;20059;-55
2022/08/04 14:41:25;;;;;;;5.38;1.67;;;;;;;;;;4816370;29;20498;-51
2022/08/04 14:43:58;;;;;;;4.65;1.70;;;;;;;;;;4823334;29;20057;-46
2022/08/04 14:46:26;;;;;;;30.65;20.25;;;;;;;;;;4823669;29;20453;-51
2022/08/04 14:49:10;;;;;;;47.75;32.88;;;;;;;;;;4823611;29;20050;-46
2022/08/04 14:51:55;;;;;;;7.15;3.03;;;;;;;;;;4823497;29;20055;-51
2022/08/04 14:54:32;;;;;;;5.13;1.80;;;;;;;;;;4823377;29;20055;-52
2022/08/04 14:57:07;;;;;;;3.65;1.90;;;;;;;;;;4823388;29;20515;-49
2022/08/04 14:59:46;;;;;;;16.58;8.73;;;;;;;;;;4823626;29;20039;-51
2022/08/04 15:02:28;;;;;;;6.53;2.40;;;;;;;;;;4823261;29;20253;-52
2022/08/04 15:04:56;;;;;;;5.28;1.77;;;;;;;;;;4823097;29;20049;-53
2022/08/04 15:07:24;;;;;;;3.42;1.58;;;;;;;;;;4823447;29;20050;-54
2022/08/04 15:09:53;;;;;;;5.63;1.90;;;;;;;;;;4823194;29;20480;-52
2022/08/04 15:12:21;;;;;;;3.08;1.50;;;;;;;;;;4823377;29;20042;-49
2022/08/04 15:14:52;;;;;;;4.47;1.90;;;;;;;;;;4822997;29;20042;-54
2022/08/04 15:17:19;;;;;;;5.32;2.15;;;;;;;;;;4823139;29;20107;-53
2022/08/04 15:19:57;;;;;;;4.80;2.05;;;;;;;;;;4840776;29;20054;-46
2022/08/04 15:22:24;;;;;;;2.58;1.80;;;;;;;;;;4841178;29;20073;-54
2022/08/04 15:24:52;;;;;;;5.90;1.75;;;;;;;;;;4841301;29;20049;-52
2022/08/04 15:27:28;;;;;;;4.15;1.80;;;;;;;;;;4841019;29;20509;-48
2022/08/04 15:30:00;;;;;;;6.28;1.98;;;;;;;;;;4835067;29;20046;-47
2022/08/04 15:32:31;;;;;;;6.25;2.33;;;;;;;;;;4823083;29;20053;-53
2022/08/04 15:35:09;;;;;;;4.45;1.98;;;;;;;;;;4822868;29;20050;-48
2022/08/04 15:37:51;;;;;;;8.52;3.65;;;;;;;;;;4823058;29;20103;-51
2022/08/04 15:40:24;;;;;;;5.68;3.03;;;;;;;;;;4822722;29;20130;-54
2022/08/04 15:43:27;;;;;;;6.18;2.97;;;;;;;;;;4822445;29;20121;-50
2022/08/04 15:45:58;;;;;;;6.65;3.30;;;;;;;;;;4822912;29;20047;-53
2022/08/04 15:48:46;;;;;;;3.08;2.10;;;;;;;;;;4822818;29;20051;-54
2022/08/04 15:51:24;;;;;;;8.23;3.47;;;;;;;;;;4822821;29;20505;-52
2022/08/04 15:53:58;;;;;;;4.88;2.47;;;;;;;;;;4822941;29;20043;-56
2022/08/04 15:56:29;;;;;;;5.60;2.30;;;;;;;;;;4822866;29;20099;-51
2022/08/04 15:58:57;;;;;;;5.18;2.28;;;;;;;;;;4822475;29;20053;-47
2022/08/04 16:01:26;;;;;;;7.53;2.50;;;;;;;;;;4822798;29;20050;-53
2022/08/04 16:03:54;;;;;;;3.60;1.90;;;;;;;;;;4822662;29;20081;-50
2022/08/04 16:06:27;;;;;;;5.00;2.03;;;;;;;;;;4822759;29;20046;-53
2022/08/04 16:09:03;;;;;;;5.38;2.00;;;;;;;;;;4822822;29;20042;-50
2022/08/04 16:11:38;;;;;;;4.97;1.90;;;;;;;;;;4822598;29;20518;-54
2022/08/04 16:14:10;;;;;;;24.35;14.70;;;;;;;;;;4822552;29;20503;-53
2022/08/04 16:16:38;;;;;;;6.05;2.78;;;;;;;;;;4822646;29;20042;-54
2022/08/04 16:19:21;;;;;;;5.22;2.67;;;;;;;;;;4834347;29;20034;-53
2022/08/04 16:21:52;;;;;;;6.43;2.28;;;;;;;;;;4840621;29;20518;-54
2022/08/04 16:24:34;;;;;;;3.25;2.10;;;;;;;;;;4840705;29;20058;-50
2022/08/04 16:27:05;;;;;;;6.00;2.13;;;;;;;;;;4840548;29;20062;-51
2022/08/04 16:29:33;;;;;;;4.57;2.53;;;;;;;;;;4840677;29;20034;-52
2022/08/04 16:32:03;;;;;;;4.35;1.95;;;;;;;;;;4843286;29;20111;-53
2022/08/04 16:34:35;;;;;;;5.50;2.17;;;;;;;;;;4843840;29;20050;-53
2022/08/04 16:37:18;;;;;;;7.90;2.58;;;;;;;;;;4843964;29;20468;-50
2022/08/04 16:39:46;;;;;;;5.35;2.58;;;;;;;;;;4843910;29;20042;-51
2022/08/04 16:42:28;;;;;;;6.88;2.30;;;;;;;;;;4843823;29;20046;-49